Thunderstorms From: 25-05-2018 15:00 Until: 26-05-2018 15:00 warning for: Thunderstorms Level: Yellow info button

Although rather usual in this region, locally or potentially dangerous phenomena are expected. (such as local winds, summer thunderstorms, rising streams or high waves) Be aware and pay attention to the latest weather updates, especially if you carry out activities exposed to weather or close to a stream or shoreline. 


Meteo18 Weather Cam more information Meteo18 Weather Cam


warning for Thunderstorms more information blitzortung!


Rain radar more information rain snow radar


Visit our other weather sites:

Template documentation
and downloads

And another site



Weather Underground History page Text

Daily Summary for June 25, 2016 Units:  Metric    English   Both
« Previous Day
Next Day »
Daily Weekly Monthly Yearly Custom
  High: Low: Average:
Temperature: -17.8 °C -10.4 °C -7.3 °C
Dew Point: -17.8 °C -11.6 °C -9.9 °C
Humidity: Humidity % 50 % 76 %
Wind Speed: 0 km/h 0 km/h 3.1 km/h
Wind Gust: 0 km/h - -
Wind:- - ENE
Pressure: 0 hPa 34384.8 hPa -
Precipitation: 0 mm    
Historical Graphs
 
 
Tabular Data for June 25, 2016
Time Temperature Dew Point Pressure Wind Wind Speed Wind Gust Humidity Rainfall Rate (Hourly)
-17.8 °C -17.8 °C 0 hPa Calm     Humidity % 0 mm
00:02 -8.2 °C -8.4 °C 34442.4 hPa Calm     97 % 7.62 mm
00:12 -8.2 °C -8.5 °C 34442.4 hPa Calm     97 % 7.62 mm
00:17 -8.2 °C -8.5 °C 34442.4 hPa Calm     97 % 7.62 mm
00:22 -8.3 °C -8.6 °C 34452.6 hPa Calm     97 % 7.62 mm
00:32 -8.4 °C -8.7 °C 34442.4 hPa Calm     97 % 7.62 mm
00:42 -8.4 °C -8.7 °C 34442.4 hPa Calm     97 % 7.62 mm
00:47 -8.4 °C -8.7 °C 34442.4 hPa Calm     97 % 7.62 mm
00:52 -8.4 °C -8.7 °C 34442.4 hPa Calm     97 % 0 mm
00:57 -8.4 °C -8.7 °C 34442.4 hPa Calm     97 % 0 mm
01:02 -8.3 °C -8.6 °C 34442.4 hPa Calm     97 % 0 mm
01:12 -8.3 °C -8.6 °C 34442.4 hPa Calm     97 % 0 mm
01:17 -8.3 °C -8.6 °C 34442.4 hPa Calm     97 % 0 mm
01:22 -8.2 °C -8.3 °C 34442.4 hPa Calm     98 % 0 mm
01:32 -8 °C -8.2 °C 34442.4 hPa Calm     98 % 0 mm
01:37 -7.9 °C -8.1 °C 34442.4 hPa Calm   2.6 km/h 98 % 0 mm
01:42 -7.9 °C -8.1 °C 34428.8 hPa Calm   2.6 km/h 98 % 0 mm
01:47 -7.9 °C -8.1 °C 34428.8 hPa Calm   2.6 km/h 98 % 0 mm
01:52 -7.9 °C -8.1 °C 34428.8 hPa Calm     98 % 0 mm
01:57 -7.9 °C -8.2 °C 34428.8 hPa Calm     97 % 0 mm
02:02 -7.9 °C -8.2 °C 34418.7 hPa Calm     97 % 0 mm
02:07 -7.9 °C -8.2 °C 34418.7 hPa Calm     97 % 0 mm
02:12 -7.9 °C -8.2 °C 34418.7 hPa Calm     97 % 0 mm
02:17 -7.9 °C -8.2 °C 34418.7 hPa Calm     97 % 0 mm
02:32 -7.9 °C -8.2 °C 34405.1 hPa Calm     97 % 0 mm
02:37 -7.9 °C -8.2 °C 34405.1 hPa Calm     97 % 0 mm
02:42 -8 °C -8.3 °C 34405.1 hPa Calm     97 % 0 mm
02:47 -8.1 °C -8.3 °C 34405.1 hPa Calm     97 % 0 mm
02:52 -8 °C -8.2 °C 34405.1 hPa Calm     98 % 0 mm
02:57 -7.9 °C -8.1 °C 34405.1 hPa Calm     98 % 0 mm
03:02 -7.8 °C -7.9 °C 34405.1 hPa Calm     98 % 0 mm
03:12 -7.7 °C -7.9 °C 34405.1 hPa Calm   2.6 km/h 98 % 0 mm
03:17 -7.8 °C -8 °C 34395 hPa Calm   2.6 km/h 98 % 0 mm
03:22 -7.9 °C -8.2 °C 34395 hPa Calm   2.6 km/h 97 % 0 mm
03:32 -7.9 °C -8.2 °C 34395 hPa Calm   2.6 km/h 97 % 0 mm
03:37 -7.9 °C -8.1 °C 34395 hPa Calm     98 % 0 mm
03:42 -7.9 °C -8.1 °C 34395 hPa Calm     98 % 0 mm
03:47 -7.9 °C -8.1 °C 34395 hPa Calm     98 % 0 mm
03:52 -8 °C -8.3 °C 34395 hPa Calm     97 % 0 mm
03:57 -8 °C -8.2 °C 34395 hPa Calm     98 % 0 mm
04:02 -7.9 °C -8.1 °C 34395 hPa Calm     98 % 0 mm
04:12 -7.9 °C -8.1 °C 34384.8 hPa Calm     98 % 0 mm
04:17 -8 °C -8.2 °C 34384.8 hPa Calm     98 % 0 mm
04:22 -8 °C -8.2 °C 34384.8 hPa Calm     98 % 0 mm
04:32 -8 °C -8.2 °C 34395 hPa Calm     98 % 0 mm
04:37 -8 °C -8.2 °C 34384.8 hPa Calm     98 % 0 mm
04:42 -8 °C -8.2 °C 34384.8 hPa Calm     98 % 0 mm
04:47 -8 °C -8.2 °C 34384.8 hPa Calm     98 % 0 mm
04:52 -8 °C -8.2 °C 34384.8 hPa Calm     98 % 0 mm
05:02 -7.9 °C -8.1 °C 34384.8 hPa Calm     98 % 0 mm
05:12 -7.9 °C -8.1 °C 34384.8 hPa Calm   2.6 km/h 98 % 0 mm
05:22 -7.9 °C -8.1 °C 34384.8 hPa NNE 2.6 km/h 2.6 km/h 98 % 0 mm
05:32 -8 °C -8.3 °C 34384.8 hPa NE 5.1 km/h 7.7 km/h 97 % 0 mm
05:52 -8.4 °C -8.7 °C 34384.8 hPa NE 5.1 km/h 12.9 km/h 97 % 0 mm
06:02 -8.4 °C -8.7 °C 34384.8 hPa NE 5.1 km/h 12.9 km/h 97 % 0 mm
06:12 -8.5 °C -8.8 °C 34384.8 hPa NE 7.7 km/h 20.8 km/h 97 % 0 mm
06:17 -8.5 °C -8.8 °C 34384.8 hPa NE 7.7 km/h 20.8 km/h 97 % 0 mm
06:32 -8.7 °C -9 °C 34384.8 hPa Calm   18.2 km/h 97 % 0 mm
06:42 -8.7 °C -9 °C 34384.8 hPa ENE 5.1 km/h 18.2 km/h 97 % 0 mm
06:52 -9 °C -9.3 °C 34395 hPa NE 2.6 km/h 15.6 km/h 96 % 0 mm
07:02 -9.2 °C -9.5 °C 34395 hPa ESE 7.7 km/h 25.9 km/h 96 % 0 mm
07:12 -9.4 °C -9.8 °C 34395 hPa NE 12.9 km/h 25.9 km/h 96 % 0 mm
07:22 -9.5 °C -9.8 °C 34395 hPa NE 5.1 km/h 25.9 km/h 96 % 0 mm
07:32 -9.4 °C -9.8 °C 34395 hPa NE 5.1 km/h 20.8 km/h 96 % 0 mm
07:42 -9.5 °C -9.9 °C 34405.1 hPa East 2.6 km/h 20.8 km/h 95 % 0 mm
07:52 -9.4 °C -10 °C 34405.1 hPa NE 12.9 km/h 15.6 km/h 94 % 0 mm
08:02 -9.3 °C -9.9 °C 34405.1 hPa NE 12.9 km/h 18.2 km/h 93 % 0 mm
08:12 -9.3 °C -10.1 °C 34405.1 hPa SE 7.7 km/h 23.3 km/h 92 % 0 mm
08:22 -9.2 °C -9.9 °C 34418.7 hPa ENE 5.1 km/h 23.3 km/h 92 % 0 mm
08:32 -9.2 °C -10.1 °C 34418.7 hPa NE 2.6 km/h 20.8 km/h 91 % 0 mm
08:42 -9.2 °C -10.1 °C 34418.7 hPa NE 10.3 km/h 15.6 km/h 91 % 0 mm
08:47 -9.2 °C -10 °C 34428.8 hPa ENE 12.9 km/h 20.8 km/h 91 % 0 mm
08:52 -9 °C -9.8 °C 34428.8 hPa ENE 5.1 km/h 20.8 km/h 91 % 0 mm
09:02 -8.9 °C -9.9 °C 34428.8 hPa NE 18.2 km/h 18.2 km/h 89 % 0 mm
09:22 -9.1 °C -10.1 °C 34442.4 hPa NE 10.3 km/h 23.3 km/h 89 % 0 mm
09:42 -8.2 °C -9.8 °C 34442.4 hPa ESE 5.1 km/h 18.2 km/h 83 % 0 mm
09:47 -8.2 °C -9.9 °C 34442.4 hPa Calm   18.2 km/h 82 % 0 mm
09:57 -7.8 °C -9.9 °C 34442.4 hPa NE 10.3 km/h 20.8 km/h 79 % 0 mm
10:02 -7.7 °C -9.6 °C 34442.4 hPa ENE 7.7 km/h 20.8 km/h 80 % 0 mm
10:12 -7.3 °C -9.3 °C 34442.4 hPa NNE 7.7 km/h 20.8 km/h 80 % 0 mm
10:17 -7.2 °C -9.3 °C 34452.6 hPa Calm   18.2 km/h 78 % 0 mm
10:22 -7.1 °C -9.4 °C 34452.6 hPa NE 12.9 km/h 18.2 km/h 76 % 0 mm
10:27 -7.2 °C -9.7 °C 34452.6 hPa NE 12.9 km/h 25.9 km/h 75 % 0 mm
10:32 -7.3 °C -9.7 °C 34452.6 hPa NE 10.3 km/h 25.9 km/h 76 % 0 mm
10:37 -7.3 °C -9.7 °C 34452.6 hPa NE 10.3 km/h 25.9 km/h 76 % 0 mm
10:42 -7.2 °C -9.6 °C 34452.6 hPa NE 7.7 km/h 25.9 km/h 76 % 0 mm
10:47 -7 °C -9.7 °C 34452.6 hPa NE 5.1 km/h 23.3 km/h 74 % 0 mm
10:52 -6.8 °C -9.5 °C 34452.6 hPa North 7.7 km/h 23.3 km/h 74 % 0 mm
10:57 -6.8 °C -9.4 °C 34462.7 hPa NE 10.3 km/h 20.8 km/h 74 % 0 mm
11:02 -6.7 °C -9.4 °C 34462.7 hPa East 7.7 km/h 20.8 km/h 73 % 0 mm
11:07 -6.5 °C -9.1 °C 34462.7 hPa Calm   23.3 km/h 75 % 0 mm
11:12 -6.7 °C -9.6 °C 34462.7 hPa ENE 2.6 km/h 23.3 km/h 72 % 0 mm
11:17 -6.9 °C -9.6 °C 34462.7 hPa NE 5.1 km/h 15.6 km/h 74 % 0 mm
11:22 -7.1 °C -9.7 °C 34462.7 hPa Calm   15.6 km/h 74 % 0 mm
11:32 -7.2 °C -9.7 °C 34462.7 hPa ENE 2.6 km/h 18.2 km/h 75 % 0 mm
11:42 -7.1 °C -9.6 °C 34462.7 hPa ENE 5.1 km/h 15.6 km/h 75 % 0 mm
11:52 -7.2 °C -9.8 °C 34462.7 hPa NE 7.7 km/h 18.2 km/h 74 % 0 mm
11:57 -7.1 °C -9.1 °C 34462.7 hPa NNE 12.9 km/h 18.2 km/h 79 % 0 mm
12:02 -7.1 °C -9.8 °C 34462.7 hPa Calm   18.2 km/h 73 % 0 mm
12:07 -7.1 °C -9.9 °C 34462.7 hPa ENE 5.1 km/h 20.8 km/h 73 % 0 mm
12:12 -7.1 °C -9.6 °C 34462.7 hPa East 2.6 km/h 20.8 km/h 75 % 0 mm
12:17 -7.2 °C -9.9 °C 34476.3 hPa NE 5.1 km/h 20.8 km/h 73 % 0 mm
12:22 -6.8 °C -9.4 °C 34462.7 hPa SSE 5.1 km/h 15.6 km/h 74 % 0 mm
12:27 -6.2 °C -9.5 °C 34476.3 hPa Calm   15.6 km/h 69 % 0 mm
12:32 -6.1 °C -9.7 °C 34476.3 hPa Calm   15.6 km/h 67 % 0 mm
12:37 -6.1 °C -9.8 °C 34476.3 hPa Calm   15.6 km/h 66 % 0 mm
12:42 -6 °C -9.8 °C 34476.3 hPa ENE 2.6 km/h 18.2 km/h 65 % 0 mm
12:47 -6.2 °C -9.8 °C 34476.3 hPa NE 12.9 km/h 18.2 km/h 67 % 0 mm
12:52 -6.4 °C -9.9 °C 34476.3 hPa NE 7.7 km/h 18.2 km/h 67 % 0 mm
12:57 -6.5 °C -10.2 °C 34476.3 hPa NE 5.1 km/h 20.8 km/h 66 % 0 mm
13:02 -6.6 °C -9.7 °C 34476.3 hPa NE 2.6 km/h 20.8 km/h 70 % 0 mm
13:12 -6 °C -9.6 °C 34462.7 hPa ENE 2.6 km/h 20.8 km/h 67 % 0 mm
13:17 -5.8 °C -9.7 °C 34462.7 hPa SE 2.6 km/h 12.9 km/h 64 % 0 mm
13:22 -5.9 °C -10.2 °C 34462.7 hPa Calm   12.9 km/h 62 % 0 mm
13:27 -5.7 °C -9.8 °C 34462.7 hPa ENE 12.9 km/h 20.8 km/h 63 % 0 mm
13:32 -5.7 °C -10.4 °C 34462.7 hPa East 7.7 km/h 20.8 km/h 59 % 0 mm
13:37 -5.7 °C -9.8 °C 34462.7 hPa Calm   20.8 km/h 63 % 0 mm
13:42 -5.6 °C -9 °C 34462.7 hPa NE 2.6 km/h 20.8 km/h 68 % 0 mm
13:47 -5.6 °C -10 °C 34462.7 hPa NE 7.7 km/h 20.8 km/h 61 % 0 mm
13:57 -6.2 °C -9.6 °C 34462.7 hPa ESE 2.6 km/h 20.8 km/h 68 % 0 mm
14:02 -6 °C -10.1 °C 34462.7 hPa ENE 2.6 km/h 20.8 km/h 63 % 0 mm
14:07 -6.2 °C -10.2 °C 34462.7 hPa NE 5.1 km/h 15.6 km/h 63 % 0 mm
14:12 -5.9 °C -10.3 °C 34462.7 hPa ENE 5.1 km/h 15.6 km/h 61 % 0 mm
14:17 -5.7 °C -10.2 °C 34462.7 hPa SSE 2.6 km/h 12.9 km/h 60 % 0 mm
14:22 -5.6 °C -10.1 °C 34462.7 hPa West 7.7 km/h 12.9 km/h 60 % 0 mm
14:32 -5.5 °C -10.3 °C 34462.7 hPa South 2.6 km/h 10.3 km/h 58 % 0 mm
14:37 -5.3 °C -10.4 °C 34462.7 hPa Calm   15.6 km/h 56 % 0 mm
14:42 -5.4 °C -10.4 °C 34462.7 hPa SW 2.6 km/h 15.6 km/h 57 % 0 mm
14:47 -5.6 °C -10.7 °C 34452.6 hPa Calm   15.6 km/h 56 % 0 mm
14:52 -5.6 °C -10.7 °C 34452.6 hPa NE 2.6 km/h 15.6 km/h 56 % 0 mm
14:57 -5.5 °C -9.9 °C 34452.6 hPa Calm   10.3 km/h 61 % 0 mm
15:02 -5.6 °C -10.6 °C 34452.6 hPa SE 7.7 km/h 10.3 km/h 57 % 0 mm
15:07 -5.6 °C -9.8 °C 34462.7 hPa NNE 2.6 km/h 12.9 km/h 62 % 0 mm
15:17 -5.8 °C -10.3 °C 34462.7 hPa Calm   28.5 km/h 60 % 0 mm
15:22 -5.7 °C -10.4 °C 34462.7 hPa East 20.8 km/h 28.5 km/h 58 % 0 mm
15:27 -5.9 °C -10.8 °C 34462.7 hPa NE 12.9 km/h 23.3 km/h 57 % 0 mm
15:32 -5.7 °C -10.2 °C 34462.7 hPa Calm   23.3 km/h 60 % 0 mm
15:37 -5.4 °C -10.1 °C 34462.7 hPa Calm   23.3 km/h 59 % 0 mm
15:42 -5.1 °C -10.2 °C 34462.7 hPa ESE 2.6 km/h 23.3 km/h 56 % 0 mm
15:47 -4.9 °C -9.9 °C 34462.7 hPa NE 7.7 km/h 18.2 km/h 57 % 0 mm
15:52 -5.1 °C -10.8 °C 34452.6 hPa Calm   18.2 km/h 52 % 0 mm
15:57 -4.9 °C -10.3 °C 34452.6 hPa NE 5.1 km/h 18.2 km/h 54 % 0 mm
16:02 -4.8 °C -10.4 °C 34452.6 hPa South 5.1 km/h 18.2 km/h 53 % 0 mm
16:07 -4.9 °C -11.1 °C 34452.6 hPa ENE 5.1 km/h 23.3 km/h 50 % 0 mm
16:12 -5.4 °C -10.5 °C 34452.6 hPa NNE 10.3 km/h 23.3 km/h 56 % 0 mm
16:17 -5.2 °C -10.2 °C 34452.6 hPa NE 7.7 km/h 28.5 km/h 57 % 0 mm
16:22 -4.9 °C -10.2 °C 34452.6 hPa ENE 15.6 km/h 28.5 km/h 55 % 0 mm
16:32 -4.7 °C -10.3 °C 34452.6 hPa ENE 10.3 km/h 25.9 km/h 53 % 0 mm
16:37 -4.8 °C -10.9 °C 34452.6 hPa ENE 2.6 km/h 25.9 km/h 50 % 0 mm
16:42 -5.2 °C -10.8 °C 34452.6 hPa ENE 7.7 km/h 25.9 km/h 53 % 0 mm
16:47 -5.5 °C -10.6 °C 34452.6 hPa Calm   23.3 km/h 56 % 0 mm
16:52 -5.5 °C -10.8 °C 34452.6 hPa SE 2.6 km/h 23.3 km/h 55 % 0 mm
16:57 -5.5 °C -10.8 °C 34452.6 hPa Calm   10.3 km/h 55 % 0 mm
17:02 -5.5 °C -10.3 °C 34452.6 hPa Calm   10.3 km/h 58 % 0 mm
17:07 -5.7 °C -10.6 °C 34452.6 hPa NE 2.6 km/h 12.9 km/h 57 % 0 mm
17:12 -5.7 °C -10.9 °C 34452.6 hPa East 5.1 km/h 12.9 km/h 55 % 0 mm
17:17 -5.9 °C -10.8 °C 34452.6 hPa NE 2.6 km/h 20.8 km/h 57 % 0 mm
17:22 -5.9 °C -10.7 °C 34452.6 hPa ENE 5.1 km/h 20.8 km/h 58 % 0 mm
17:27 -5.6 °C -10.3 °C 34452.6 hPa ENE 5.1 km/h 15.6 km/h 58 % 0 mm
17:32 -5.4 °C -10.8 °C 34452.6 hPa Calm   15.6 km/h 54 % 0 mm
17:37 -5.1 °C -10.6 °C 34452.6 hPa Calm   10.3 km/h 54 % 0 mm
17:42 -5.3 °C -10.9 °C 34452.6 hPa ESE 7.7 km/h 10.3 km/h 53 % 0 mm
17:47 -5.7 °C -10.5 °C 34452.6 hPa SE 2.6 km/h 15.6 km/h 58 % 0 mm
17:52 -6 °C -10.9 °C 34452.6 hPa NE 2.6 km/h 15.6 km/h 57 % 0 mm
17:57 -6.2 °C -11.1 °C 34452.6 hPa ENE 5.1 km/h 20.8 km/h 57 % 0 mm
18:02 -6.1 °C -10.8 °C 34452.6 hPa NE 2.6 km/h 20.8 km/h 58 % 0 mm
18:07 -6.1 °C -10.6 °C 34452.6 hPa Calm   20.8 km/h 60 % 0 mm
18:12 -6.1 °C -10.9 °C 34452.6 hPa ENE 2.6 km/h 20.8 km/h 58 % 0 mm
18:17 -6.2 °C -10.9 °C 34452.6 hPa ENE 2.6 km/h 15.6 km/h 58 % 0 mm
18:27 -6.3 °C -10.7 °C 34452.6 hPa Calm   15.6 km/h 60 % 0 mm
18:32 -6.3 °C -10.9 °C 34452.6 hPa NE 7.7 km/h 7.7 km/h 59 % 0 mm
18:42 -6 °C -10.6 °C 34452.6 hPa NE 2.6 km/h 18.2 km/h 59 % 0 mm
18:47 -5.8 °C -10.9 °C 34452.6 hPa ENE 7.7 km/h 18.2 km/h 56 % 0 mm
18:52 -5.8 °C -10.9 °C 34452.6 hPa NNE 15.6 km/h 18.2 km/h 56 % 0 mm
19:02 -6.1 °C -11.3 °C 34452.6 hPa ESE 10.3 km/h 23.3 km/h 55 % 0 mm
19:07 -6.2 °C -11.1 °C 34452.6 hPa NE 5.1 km/h 23.3 km/h 57 % 0 mm
19:12 -6.3 °C -11.2 °C 34452.6 hPa Calm   23.3 km/h 57 % 0 mm
19:17 -6.4 °C -11.2 °C 34452.6 hPa Calm   18.2 km/h 58 % 0 mm
19:22 -6.4 °C -11.2 °C 34452.6 hPa ENE 5.1 km/h 18.2 km/h 58 % 0 mm
19:27 -6.5 °C -11.4 °C 34462.7 hPa NNE 2.6 km/h 15.6 km/h 57 % 0 mm
19:32 -6.5 °C -11.2 °C 34462.7 hPa NE 7.7 km/h 15.6 km/h 58 % 0 mm
19:37 -6.6 °C -11.4 °C 34462.7 hPa NE 5.1 km/h 12.9 km/h 57 % 0 mm
19:42 -6.7 °C -11.2 °C 34462.7 hPa ENE 2.6 km/h 12.9 km/h 60 % 0 mm
19:47 -6.8 °C -10.8 °C 34462.7 hPa Calm   10.3 km/h 63 % 0 mm
19:52 -6.9 °C -10.7 °C 34462.7 hPa Calm   10.3 km/h 65 % 0 mm
19:57 -7.1 °C -10.8 °C 34462.7 hPa Calm   5.1 km/h 65 % 0 mm
20:02 -7.1 °C -10.6 °C 34462.7 hPa Calm   5.1 km/h 67 % 0 mm
20:07 -7.2 °C -10.3 °C 34462.7 hPa ENE 2.6 km/h 5.1 km/h 70 % 0 mm
20:12 -7.2 °C -10.8 °C 34462.7 hPa Calm   5.1 km/h 66 % 0 mm
20:17 -7.2 °C -10.7 °C 34476.3 hPa Calm   2.6 km/h 67 % 0 mm
20:22 -7.3 °C -11 °C 34476.3 hPa Calm   2.6 km/h 65 % 0 mm
20:27 -7.3 °C -11 °C 34476.3 hPa Calm   5.1 km/h 65 % 0 mm
20:32 -7.4 °C -11.1 °C 34476.3 hPa Calm   5.1 km/h 65 % 0 mm
20:37 -7.4 °C -11.2 °C 34476.3 hPa Calm   10.3 km/h 65 % 0 mm
20:42 -7.5 °C -11.1 °C 34476.3 hPa Calm   10.3 km/h 66 % 0 mm
20:47 -7.6 °C -11 °C 34476.3 hPa Calm   10.3 km/h 67 % 0 mm
20:52 -7.6 °C -10.9 °C 34476.3 hPa Calm   10.3 km/h 68 % 0 mm
20:57 -7.7 °C -11.1 °C 34476.3 hPa Calm   7.7 km/h 68 % 0 mm
21:02 -7.8 °C -11.2 °C 34476.3 hPa Calm   7.7 km/h 68 % 0 mm
21:07 -7.9 °C -11.2 °C 34476.3 hPa Calm   2.6 km/h 68 % 0 mm
21:12 -7.9 °C -11.3 °C 34486.4 hPa Calm   2.6 km/h 68 % 0 mm
21:17 -8 °C -11.3 °C 34486.4 hPa Calm   2.6 km/h 68 % 0 mm
21:22 -8.1 °C -11.3 °C 34486.4 hPa Calm   2.6 km/h 69 % 0 mm
21:27 -8.2 °C -11.3 °C 34486.4 hPa Calm   2.6 km/h 69 % 0 mm
21:32 -8.2 °C -11.3 °C 34486.4 hPa Calm   2.6 km/h 70 % 0 mm
21:37 -8.4 °C -11.1 °C 34486.4 hPa Calm     73 % 0 mm
21:42 -8.5 °C -11.3 °C 34486.4 hPa Calm     72 % 0 mm
21:47 -8.6 °C -11.4 °C 34486.4 hPa Calm     72 % 0 mm
21:52 -8.7 °C -11.3 °C 34496.6 hPa Calm     74 % 0 mm
21:57 -8.8 °C -11.2 °C 34496.6 hPa Calm     76 % 0 mm
22:02 -9 °C -11.2 °C 34496.6 hPa Calm     77 % 0 mm
22:07 -9.1 °C -11.2 °C 34496.6 hPa Calm     78 % 0 mm
22:12 -9.3 °C -11.2 °C 34496.6 hPa Calm     80 % 0 mm
22:17 -9.4 °C -11.3 °C 34496.6 hPa Calm     80 % 0 mm
22:22 -9.5 °C -11.3 °C 34496.6 hPa Calm     81 % 0 mm
22:27 -9.6 °C -11.2 °C 34496.6 hPa Calm     82 % 0 mm
22:34 -9.7 °C -11.4 °C 34496.6 hPa Calm     82 % 0 mm
22:42 -9.9 °C -11.3 °C 34496.6 hPa Calm     85 % 0 mm
22:57 -10.3 °C -11.4 °C 34510.1 hPa Calm     88 % 0 mm
23:09 -10.4 °C -11.4 °C 34510.1 hPa Calm     89 % 0 mm
23:23 -10.3 °C -11.5 °C 34510.1 hPa Calm   2.6 km/h 87 % 0 mm
23:38 -10.1 °C -11.6 °C 34510.1 hPa Calm     84 % 0 mm
23:52 -10.3 °C -11.6 °C 34510.1 hPa Calm     86 % 0 mm
Meteo18
Compliments of Weather Underground - 4 mb

Script developed by  Jim McMurry - jmcmurry@mwt.net Adapted for the template by  Wim van der Kuil - Leuven-Template.eu

You find our weather info also at:

European Weather Network

Weather Underground

Equipment we use:

Weather-station
Davis Vue

Weather-program
Meteobridge

Weather-server
Raspberry PI 2 B+

Provider
1 and 1

Davis Vue

Meteobridge

Raspberry PI 2 B+

1 and 1